sensor_id;sensor_type;location;lat;lon;timestamp;temperature;humidity
14471;DHT22;7321;50.802;4.336;2022-08-02T00:01:42;22.10;99.90
14471;DHT22;7321;50.802;4.336;2022-08-02T00:04:08;22.10;99.90
14471;DHT22;7321;50.802;4.336;2022-08-02T00:06:34;22.20;99.90
14471;DHT22;7321;50.802;4.336;2022-08-02T00:09:01;22.10;99.90
14471;DHT22;7321;50.802;4.336;2022-08-02T00:11:27;22.10;99.90
14471;DHT22;7321;50.802;4.336;2022-08-02T00:13:53;22.00;99.90
14471;DHT22;7321;50.802;4.336;2022-08-02T00:16:19;22.00;99.90
14471;DHT22;7321;50.802;4.336;2022-08-02T00:18:45;22.10;99.90
14471;DHT22;7321;50.802;4.336;2022-08-02T00:21:12;22.00;99.90
14471;DHT22;7321;50.802;4.336;2022-08-02T00:23:38;22.00;99.90
14471;DHT22;7321;50.802;4.336;2022-08-02T00:26:03;22.10;99.90
14471;DHT22;7321;50.802;4.336;2022-08-02T00:28:29;22.00;99.90
14471;DHT22;7321;50.802;4.336;2022-08-02T00:30:58;22.00;99.90
14471;DHT22;7321;50.802;4.336;2022-08-02T00:33:25;22.00;99.90
14471;DHT22;7321;50.802;4.336;2022-08-02T00:35:50;22.00;99.90
14471;DHT22;7321;50.802;4.336;2022-08-02T00:38:16;22.00;99.90
14471;DHT22;7321;50.802;4.336;2022-08-02T00:40:51;22.00;99.90
14471;DHT22;7321;50.802;4.336;2022-08-02T00:43:18;22.00;99.90
14471;DHT22;7321;50.802;4.336;2022-08-02T00:45:44;22.10;99.90
14471;DHT22;7321;50.802;4.336;2022-08-02T00:48:11;22.10;99.90
14471;DHT22;7321;50.802;4.336;2022-08-02T00:50:38;22.00;99.90
14471;DHT22;7321;50.802;4.336;2022-08-02T00:53:04;21.90;99.90
14471;DHT22;7321;50.802;4.336;2022-08-02T00:55:31;21.80;99.90
14471;DHT22;7321;50.802;4.336;2022-08-02T00:57:56;21.80;99.90
14471;DHT22;7321;50.802;4.336;2022-08-02T01:00:22;21.70;99.90
14471;DHT22;7321;50.802;4.336;2022-08-02T01:02:48;21.60;99.90
14471;DHT22;7321;50.802;4.336;2022-08-02T01:05:15;21.50;99.90
14471;DHT22;7321;50.802;4.336;2022-08-02T01:07:41;21.50;99.90
14471;DHT22;7321;50.802;4.336;2022-08-02T01:10:07;21.60;99.90
14471;DHT22;7321;50.802;4.336;2022-08-02T01:12:33;21.50;99.90
14471;DHT22;7321;50.802;4.336;2022-08-02T01:15:03;21.60;99.90
14471;DHT22;7321;50.802;4.336;2022-08-02T01:20:44;21.60;99.90
14471;DHT22;7321;50.802;4.336;2022-08-02T01:29:01;21.50;99.90
14471;DHT22;7321;50.802;4.336;2022-08-02T01:31:29;21.50;99.90
14471;DHT22;7321;50.802;4.336;2022-08-02T01:37:45;21.60;99.90
14471;DHT22;7321;50.802;4.336;2022-08-02T01:40:05;21.60;99.90
14471;DHT22;7321;50.802;4.336;2022-08-02T01:42:33;21.50;99.90
14471;DHT22;7321;50.802;4.336;2022-08-02T01:45:02;21.50;99.90
14471;DHT22;7321;50.802;4.336;2022-08-02T01:47:30;21.60;99.90
14471;DHT22;7321;50.802;4.336;2022-08-02T01:49:58;21.60;99.90
14471;DHT22;7321;50.802;4.336;2022-08-02T01:52:28;21.60;99.90
14471;DHT22;7321;50.802;4.336;2022-08-02T01:55:11;21.70;99.90
14471;DHT22;7321;50.802;4.336;2022-08-02T01:57:57;21.80;99.90
14471;DHT22;7321;50.802;4.336;2022-08-02T02:00:27;21.70;99.90
14471;DHT22;7321;50.802;4.336;2022-08-02T02:02:55;21.70;99.90
14471;DHT22;7321;50.802;4.336;2022-08-02T02:05:24;21.80;99.90
14471;DHT22;7321;50.802;4.336;2022-08-02T02:07:52;21.80;99.90
14471;DHT22;7321;50.802;4.336;2022-08-02T02:10:25;21.70;99.90
14471;DHT22;7321;50.802;4.336;2022-08-02T02:12:52;21.50;99.90
14471;DHT22;7321;50.802;4.336;2022-08-02T02:15:20;21.50;99.90
14471;DHT22;7321;50.802;4.336;2022-08-02T02:17:49;21.50;99.90
14471;DHT22;7321;50.802;4.336;2022-08-02T02:20:18;21.40;99.90
14471;DHT22;7321;50.802;4.336;2022-08-02T02:22:45;21.40;99.90
14471;DHT22;7321;50.802;4.336;2022-08-02T02:25:12;21.40;99.90
14471;DHT22;7321;50.802;4.336;2022-08-02T02:28:02;21.50;99.90
14471;DHT22;7321;50.802;4.336;2022-08-02T02:30:29;21.50;99.90
14471;DHT22;7321;50.802;4.336;2022-08-02T02:32:59;21.40;99.90
14471;DHT22;7321;50.802;4.336;2022-08-02T02:35:31;21.30;99.90
14471;DHT22;7321;50.802;4.336;2022-08-02T02:38:00;21.30;99.90
14471;DHT22;7321;50.802;4.336;2022-08-02T02:40:28;21.30;99.90
14471;DHT22;7321;50.802;4.336;2022-08-02T02:42:55;21.20;99.90
14471;DHT22;7321;50.802;4.336;2022-08-02T02:45:23;21.10;99.90
14471;DHT22;7321;50.802;4.336;2022-08-02T02:47:50;21.10;99.90
14471;DHT22;7321;50.802;4.336;2022-08-02T02:50:17;20.90;99.90
14471;DHT22;7321;50.802;4.336;2022-08-02T02:52:43;21.00;99.90
14471;DHT22;7321;50.802;4.336;2022-08-02T02:55:10;21.10;99.90
14471;DHT22;7321;50.802;4.336;2022-08-02T02:57:39;21.10;99.90
14471;DHT22;7321;50.802;4.336;2022-08-02T03:00:13;21.30;99.90
14471;DHT22;7321;50.802;4.336;2022-08-02T03:02:41;21.20;99.90
14471;DHT22;7321;50.802;4.336;2022-08-02T03:05:09;21.20;99.90
14471;DHT22;7321;50.802;4.336;2022-08-02T03:07:38;21.30;99.90
14471;DHT22;7321;50.802;4.336;2022-08-02T03:10:05;21.30;99.90
14471;DHT22;7321;50.802;4.336;2022-08-02T03:12:33;21.30;99.90
14471;DHT22;7321;50.802;4.336;2022-08-02T03:15:03;21.20;99.90
14471;DHT22;7321;50.802;4.336;2022-08-02T03:17:44;21.10;99.90
14471;DHT22;7321;50.802;4.336;2022-08-02T03:20:15;21.10;99.90
14471;DHT22;7321;50.802;4.336;2022-08-02T03:22:42;21.20;99.90
14471;DHT22;7321;50.802;4.336;2022-08-02T03:25:10;21.20;99.90
14471;DHT22;7321;50.802;4.336;2022-08-02T03:27:36;21.30;99.90
14471;DHT22;7321;50.802;4.336;2022-08-02T03:30:04;21.30;99.90
14471;DHT22;7321;50.802;4.336;2022-08-02T03:32:32;21.30;99.90
14471;DHT22;7321;50.802;4.336;2022-08-02T03:34:58;21.30;99.90
14471;DHT22;7321;50.802;4.336;2022-08-02T03:37:25;21.30;99.90
14471;DHT22;7321;50.802;4.336;2022-08-02T03:39:52;21.30;99.90
14471;DHT22;7321;50.802;4.336;2022-08-02T03:42:20;21.30;99.90
14471;DHT22;7321;50.802;4.336;2022-08-02T03:44:47;21.30;99.90
14471;DHT22;7321;50.802;4.336;2022-08-02T03:47:14;21.20;99.90
14471;DHT22;7321;50.802;4.336;2022-08-02T03:49:41;21.30;99.90
14471;DHT22;7321;50.802;4.336;2022-08-02T03:52:08;21.20;99.90
14471;DHT22;7321;50.802;4.336;2022-08-02T03:54:34;21.10;99.90
14471;DHT22;7321;50.802;4.336;2022-08-02T03:57:00;21.10;99.90
14471;DHT22;7321;50.802;4.336;2022-08-02T03:59:26;21.10;99.90
14471;DHT22;7321;50.802;4.336;2022-08-02T04:01:51;21.10;99.90
14471;DHT22;7321;50.802;4.336;2022-08-02T04:04:17;21.10;99.90
14471;DHT22;7321;50.802;4.336;2022-08-02T04:06:43;21.20;99.90
14471;DHT22;7321;50.802;4.336;2022-08-02T04:09:09;21.20;99.90
14471;DHT22;7321;50.802;4.336;2022-08-02T04:11:34;21.10;99.90
14471;DHT22;7321;50.802;4.336;2022-08-02T04:14:06;21.10;99.90
14471;DHT22;7321;50.802;4.336;2022-08-02T04:16:44;21.10;99.90
14471;DHT22;7321;50.802;4.336;2022-08-02T04:19:37;21.10;99.90
14471;DHT22;7321;50.802;4.336;2022-08-02T04:22:02;21.00;99.90
14471;DHT22;7321;50.802;4.336;2022-08-02T04:24:37;20.90;99.90
14471;DHT22;7321;50.802;4.336;2022-08-02T04:27:04;20.80;99.90
14471;DHT22;7321;50.802;4.336;2022-08-02T04:29:32;20.90;99.90
14471;DHT22;7321;50.802;4.336;2022-08-02T04:31:59;20.90;99.90
14471;DHT22;7321;50.802;4.336;2022-08-02T04:34:25;20.90;99.90
14471;DHT22;7321;50.802;4.336;2022-08-02T04:36:51;20.80;99.90
14471;DHT22;7321;50.802;4.336;2022-08-02T04:39:18;20.70;99.90
14471;DHT22;7321;50.802;4.336;2022-08-02T04:41:44;20.70;99.90
14471;DHT22;7321;50.802;4.336;2022-08-02T04:44:11;20.70;99.90
14471;DHT22;7321;50.802;4.336;2022-08-02T04:46:38;20.70;99.90
14471;DHT22;7321;50.802;4.336;2022-08-02T04:49:05;20.50;99.90
14471;DHT22;7321;50.802;4.336;2022-08-02T04:51:34;20.60;99.90
14471;DHT22;7321;50.802;4.336;2022-08-02T04:54:01;20.50;99.90
14471;DHT22;7321;50.802;4.336;2022-08-02T04:56:26;20.60;99.90
14471;DHT22;7321;50.802;4.336;2022-08-02T04:58:52;20.50;99.90
14471;DHT22;7321;50.802;4.336;2022-08-02T05:01:18;20.40;99.90
14471;DHT22;7321;50.802;4.336;2022-08-02T05:03:43;20.40;99.90
14471;DHT22;7321;50.802;4.336;2022-08-02T05:06:09;20.40;99.90
14471;DHT22;7321;50.802;4.336;2022-08-02T05:08:35;20.50;99.90
14471;DHT22;7321;50.802;4.336;2022-08-02T05:11:01;20.40;99.90
14471;DHT22;7321;50.802;4.336;2022-08-02T05:13:26;20.50;99.90
14471;DHT22;7321;50.802;4.336;2022-08-02T05:15:52;20.40;99.90
14471;DHT22;7321;50.802;4.336;2022-08-02T05:18:18;20.40;99.90
14471;DHT22;7321;50.802;4.336;2022-08-02T05:20:44;20.40;99.90
14471;DHT22;7321;50.802;4.336;2022-08-02T05:23:09;20.40;99.90
14471;DHT22;7321;50.802;4.336;2022-08-02T05:25:35;20.50;99.90
14471;DHT22;7321;50.802;4.336;2022-08-02T05:28:01;20.60;99.90
14471;DHT22;7321;50.802;4.336;2022-08-02T05:30:27;20.60;99.90
14471;DHT22;7321;50.802;4.336;2022-08-02T05:32:52;20.70;99.90
14471;DHT22;7321;50.802;4.336;2022-08-02T05:35:21;20.60;99.90
14471;DHT22;7321;50.802;4.336;2022-08-02T05:37:49;20.70;99.90
14471;DHT22;7321;50.802;4.336;2022-08-02T05:40:15;20.70;99.90
14471;DHT22;7321;50.802;4.336;2022-08-02T05:42:41;20.70;99.90
14471;DHT22;7321;50.802;4.336;2022-08-02T05:45:07;20.70;99.90
14471;DHT22;7321;50.802;4.336;2022-08-02T05:47:34;20.80;99.90
14471;DHT22;7321;50.802;4.336;2022-08-02T05:49:59;20.90;99.90
14471;DHT22;7321;50.802;4.336;2022-08-02T05:52:49;21.00;99.90
14471;DHT22;7321;50.802;4.336;2022-08-02T05:55:28;20.90;99.90
14471;DHT22;7321;50.802;4.336;2022-08-02T05:58:12;21.00;99.90
14471;DHT22;7321;50.802;4.336;2022-08-02T06:00:40;21.00;99.90
14471;DHT22;7321;50.802;4.336;2022-08-02T06:05:52;21.10;99.90
14471;DHT22;7321;50.802;4.336;2022-08-02T06:08:20;21.20;99.90
14471;DHT22;7321;50.802;4.336;2022-08-02T06:10:47;21.20;99.90
14471;DHT22;7321;50.802;4.336;2022-08-02T06:13:13;21.20;99.90
14471;DHT22;7321;50.802;4.336;2022-08-02T06:15:43;21.30;99.90
14471;DHT22;7321;50.802;4.336;2022-08-02T06:18:15;21.40;99.90
14471;DHT22;7321;50.802;4.336;2022-08-02T06:20:41;21.40;99.90
14471;DHT22;7321;50.802;4.336;2022-08-02T06:23:07;21.50;99.90
14471;DHT22;7321;50.802;4.336;2022-08-02T06:25:35;21.50;99.90
14471;DHT22;7321;50.802;4.336;2022-08-02T06:28:04;21.70;99.90
14471;DHT22;7321;50.802;4.336;2022-08-02T06:30:31;21.70;99.90
14471;DHT22;7321;50.802;4.336;2022-08-02T06:32:58;21.80;99.90
14471;DHT22;7321;50.802;4.336;2022-08-02T06:35:44;21.90;99.90
14471;DHT22;7321;50.802;4.336;2022-08-02T06:38:18;22.00;99.90
14471;DHT22;7321;50.802;4.336;2022-08-02T06:41:07;22.20;99.90
14471;DHT22;7321;50.802;4.336;2022-08-02T06:43:49;22.20;99.90
14471;DHT22;7321;50.802;4.336;2022-08-02T06:46:18;22.30;99.90
14471;DHT22;7321;50.802;4.336;2022-08-02T06:48:44;22.30;99.90
14471;DHT22;7321;50.802;4.336;2022-08-02T06:51:11;22.50;99.90
14471;DHT22;7321;50.802;4.336;2022-08-02T06:53:37;22.50;99.90
14471;DHT22;7321;50.802;4.336;2022-08-02T06:56:06;22.60;99.90
14471;DHT22;7321;50.802;4.336;2022-08-02T06:58:32;22.70;99.90
14471;DHT22;7321;50.802;4.336;2022-08-02T07:01:02;22.70;99.90
14471;DHT22;7321;50.802;4.336;2022-08-02T07:03:41;22.80;99.90
14471;DHT22;7321;50.802;4.336;2022-08-02T07:06:07;22.80;99.90
14471;DHT22;7321;50.802;4.336;2022-08-02T07:08:34;22.90;99.90
14471;DHT22;7321;50.802;4.336;2022-08-02T07:11:10;22.90;99.90
14471;DHT22;7321;50.802;4.336;2022-08-02T07:13:39;23.00;99.90
14471;DHT22;7321;50.802;4.336;2022-08-02T07:16:05;23.00;99.90
14471;DHT22;7321;50.802;4.336;2022-08-02T07:18:33;23.00;99.90
14471;DHT22;7321;50.802;4.336;2022-08-02T07:20:59;23.00;99.90
14471;DHT22;7321;50.802;4.336;2022-08-02T07:23:24;23.10;99.90
14471;DHT22;7321;50.802;4.336;2022-08-02T07:25:53;23.20;99.90
14471;DHT22;7321;50.802;4.336;2022-08-02T07:28:19;23.20;99.90
14471;DHT22;7321;50.802;4.336;2022-08-02T07:30:45;23.40;99.90
14471;DHT22;7321;50.802;4.336;2022-08-02T07:33:11;23.50;99.90
14471;DHT22;7321;50.802;4.336;2022-08-02T07:35:43;23.50;99.90
14471;DHT22;7321;50.802;4.336;2022-08-02T07:38:12;23.60;99.90
14471;DHT22;7321;50.802;4.336;2022-08-02T07:40:38;23.50;99.90
14471;DHT22;7321;50.802;4.336;2022-08-02T07:43:04;23.60;99.90
14471;DHT22;7321;50.802;4.336;2022-08-02T07:45:30;23.50;99.90
14471;DHT22;7321;50.802;4.336;2022-08-02T07:47:56;23.60;99.90
14471;DHT22;7321;50.802;4.336;2022-08-02T07:50:22;23.80;99.90
14471;DHT22;7321;50.802;4.336;2022-08-02T07:52:48;23.90;99.90
14471;DHT22;7321;50.802;4.336;2022-08-02T07:55:15;24.00;99.90
14471;DHT22;7321;50.802;4.336;2022-08-02T07:57:43;24.10;99.90
14471;DHT22;7321;50.802;4.336;2022-08-02T08:00:09;24.10;99.90
14471;DHT22;7321;50.802;4.336;2022-08-02T08:02:45;24.20;99.90
14471;DHT22;7321;50.802;4.336;2022-08-02T08:05:11;24.40;99.90
14471;DHT22;7321;50.802;4.336;2022-08-02T08:07:37;24.40;99.90
14471;DHT22;7321;50.802;4.336;2022-08-02T08:10:05;24.60;99.90
14471;DHT22;7321;50.802;4.336;2022-08-02T08:12:31;24.60;99.90
14471;DHT22;7321;50.802;4.336;2022-08-02T08:14:57;24.60;99.90
14471;DHT22;7321;50.802;4.336;2022-08-02T08:17:23;24.80;99.90
14471;DHT22;7321;50.802;4.336;2022-08-02T08:19:49;24.90;99.90
14471;DHT22;7321;50.802;4.336;2022-08-02T08:22:15;24.90;99.90
14471;DHT22;7321;50.802;4.336;2022-08-02T08:24:43;24.90;99.90
14471;DHT22;7321;50.802;4.336;2022-08-02T08:27:12;25.00;99.90
14471;DHT22;7321;50.802;4.336;2022-08-02T08:29:43;24.90;99.90
14471;DHT22;7321;50.802;4.336;2022-08-02T08:32:10;24.80;99.90
14471;DHT22;7321;50.802;4.336;2022-08-02T08:34:39;24.90;99.90
14471;DHT22;7321;50.802;4.336;2022-08-02T08:37:05;24.90;99.90
14471;DHT22;7321;50.802;4.336;2022-08-02T08:39:31;24.90;99.90
14471;DHT22;7321;50.802;4.336;2022-08-02T08:41:57;25.00;99.90
14471;DHT22;7321;50.802;4.336;2022-08-02T08:44:22;25.10;99.90
14471;DHT22;7321;50.802;4.336;2022-08-02T08:46:49;25.20;99.90
14471;DHT22;7321;50.802;4.336;2022-08-02T08:49:24;25.50;99.90
14471;DHT22;7321;50.802;4.336;2022-08-02T08:51:54;25.50;99.90
14471;DHT22;7321;50.802;4.336;2022-08-02T08:54:23;25.40;99.90
14471;DHT22;7321;50.802;4.336;2022-08-02T08:56:50;25.50;99.90
14471;DHT22;7321;50.802;4.336;2022-08-02T08:59:17;25.60;99.90
14471;DHT22;7321;50.802;4.336;2022-08-02T09:01:44;25.70;99.90
14471;DHT22;7321;50.802;4.336;2022-08-02T09:04:10;25.80;99.90
14471;DHT22;7321;50.802;4.336;2022-08-02T09:06:38;25.70;99.90
14471;DHT22;7321;50.802;4.336;2022-08-02T09:09:04;25.80;99.90
14471;DHT22;7321;50.802;4.336;2022-08-02T09:11:30;25.80;99.90
14471;DHT22;7321;50.802;4.336;2022-08-02T09:13:58;26.00;99.90
14471;DHT22;7321;50.802;4.336;2022-08-02T09:16:41;26.10;99.90
14471;DHT22;7321;50.802;4.336;2022-08-02T09:19:20;26.30;99.90
14471;DHT22;7321;50.802;4.336;2022-08-02T09:21:48;26.30;99.90
14471;DHT22;7321;50.802;4.336;2022-08-02T09:24:21;26.30;99.90
14471;DHT22;7321;50.802;4.336;2022-08-02T09:26:48;26.40;99.90
14471;DHT22;7321;50.802;4.336;2022-08-02T09:29:15;26.70;99.90
14471;DHT22;7321;50.802;4.336;2022-08-02T09:31:42;26.90;99.90
14471;DHT22;7321;50.802;4.336;2022-08-02T09:34:08;27.00;99.90
14471;DHT22;7321;50.802;4.336;2022-08-02T09:36:42;27.10;99.90
14471;DHT22;7321;50.802;4.336;2022-08-02T09:39:14;27.20;99.90
14471;DHT22;7321;50.802;4.336;2022-08-02T09:41:41;27.10;99.90
14471;DHT22;7321;50.802;4.336;2022-08-02T09:44:13;27.10;99.90
14471;DHT22;7321;50.802;4.336;2022-08-02T09:46:45;26.90;99.90
14471;DHT22;7321;50.802;4.336;2022-08-02T09:49:16;27.10;99.90
14471;DHT22;7321;50.802;4.336;2022-08-02T09:54:16;27.40;99.90
14471;DHT22;7321;50.802;4.336;2022-08-02T09:59:12;27.50;99.90
14471;DHT22;7321;50.802;4.336;2022-08-02T10:01:38;27.60;99.90
14471;DHT22;7321;50.802;4.336;2022-08-02T10:04:06;27.40;99.90
14471;DHT22;7321;50.802;4.336;2022-08-02T10:06:32;27.30;99.90
14471;DHT22;7321;50.802;4.336;2022-08-02T10:08:59;27.30;99.90
14471;DHT22;7321;50.802;4.336;2022-08-02T10:11:27;27.50;99.90
14471;DHT22;7321;50.802;4.336;2022-08-02T10:13:54;27.60;99.90
14471;DHT22;7321;50.802;4.336;2022-08-02T10:16:21;28.00;99.90
14471;DHT22;7321;50.802;4.336;2022-08-02T10:18:55;28.10;99.90
14471;DHT22;7321;50.802;4.336;2022-08-02T10:21:35;28.40;99.90
14471;DHT22;7321;50.802;4.336;2022-08-02T10:24:16;28.50;99.90
14471;DHT22;7321;50.802;4.336;2022-08-02T10:26:44;28.60;99.90
14471;DHT22;7321;50.802;4.336;2022-08-02T10:29:20;28.60;99.90
14471;DHT22;7321;50.802;4.336;2022-08-02T10:32:02;28.70;99.90
14471;DHT22;7321;50.802;4.336;2022-08-02T10:34:48;28.60;99.90
14471;DHT22;7321;50.802;4.336;2022-08-02T10:37:16;28.70;99.90
14471;DHT22;7321;50.802;4.336;2022-08-02T10:39:44;28.70;99.90
14471;DHT22;7321;50.802;4.336;2022-08-02T10:42:12;28.50;99.90
14471;DHT22;7321;50.802;4.336;2022-08-02T10:44:38;28.00;99.90
14471;DHT22;7321;50.802;4.336;2022-08-02T10:49:57;27.90;99.90
14471;DHT22;7321;50.802;4.336;2022-08-02T10:52:30;28.20;99.90
14471;DHT22;7321;50.802;4.336;2022-08-02T10:55:00;28.10;99.90
14471;DHT22;7321;50.802;4.336;2022-08-02T10:57:31;28.30;99.90
14471;DHT22;7321;50.802;4.336;2022-08-02T11:00:25;28.20;99.90
14471;DHT22;7321;50.802;4.336;2022-08-02T11:02:54;28.40;99.90
14471;DHT22;7321;50.802;4.336;2022-08-02T11:05:32;28.30;99.90
14471;DHT22;7321;50.802;4.336;2022-08-02T11:08:22;28.20;99.90
14471;DHT22;7321;50.802;4.336;2022-08-02T11:10:49;28.40;99.90
14471;DHT22;7321;50.802;4.336;2022-08-02T11:13:16;28.50;99.90
14471;DHT22;7321;50.802;4.336;2022-08-02T11:18:15;28.50;99.90
14471;DHT22;7321;50.802;4.336;2022-08-02T11:20:42;28.50;99.90
14471;DHT22;7321;50.802;4.336;2022-08-02T11:23:34;28.60;99.90
14471;DHT22;7321;50.802;4.336;2022-08-02T11:28:56;28.60;99.90
14471;DHT22;7321;50.802;4.336;2022-08-02T11:31:22;28.60;99.90
14471;DHT22;7321;50.802;4.336;2022-08-02T11:33:49;28.70;99.90
14471;DHT22;7321;50.802;4.336;2022-08-02T11:36:15;28.90;99.90
14471;DHT22;7321;50.802;4.336;2022-08-02T11:38:42;29.00;99.90
14471;DHT22;7321;50.802;4.336;2022-08-02T11:41:09;28.70;99.90
14471;DHT22;7321;50.802;4.336;2022-08-02T11:43:39;28.90;99.90
14471;DHT22;7321;50.802;4.336;2022-08-02T11:46:14;28.70;99.90
14471;DHT22;7321;50.802;4.336;2022-08-02T11:48:40;28.80;99.90
14471;DHT22;7321;50.802;4.336;2022-08-02T11:51:08;28.70;99.90
14471;DHT22;7321;50.802;4.336;2022-08-02T11:53:45;28.60;99.90
14471;DHT22;7321;50.802;4.336;2022-08-02T11:56:11;28.80;99.90
14471;DHT22;7321;50.802;4.336;2022-08-02T11:58:38;28.90;99.90
14471;DHT22;7321;50.802;4.336;2022-08-02T12:01:04;28.80;99.90
14471;DHT22;7321;50.802;4.336;2022-08-02T12:03:35;28.80;99.90
14471;DHT22;7321;50.802;4.336;2022-08-02T12:06:02;28.80;99.90
14471;DHT22;7321;50.802;4.336;2022-08-02T12:08:30;28.80;99.90
14471;DHT22;7321;50.802;4.336;2022-08-02T12:10:59;28.80;99.90
14471;DHT22;7321;50.802;4.336;2022-08-02T12:13:26;28.60;99.90
14471;DHT22;7321;50.802;4.336;2022-08-02T12:15:52;28.50;99.90
14471;DHT22;7321;50.802;4.336;2022-08-02T12:18:21;28.60;99.90
14471;DHT22;7321;50.802;4.336;2022-08-02T12:21:24;28.70;99.90
14471;DHT22;7321;50.802;4.336;2022-08-02T12:23:50;28.60;99.90
14471;DHT22;7321;50.802;4.336;2022-08-02T12:26:16;28.60;99.90
14471;DHT22;7321;50.802;4.336;2022-08-02T12:28:42;28.60;99.90
14471;DHT22;7321;50.802;4.336;2022-08-02T12:31:09;28.80;99.90
14471;DHT22;7321;50.802;4.336;2022-08-02T12:33:46;28.70;99.90
14471;DHT22;7321;50.802;4.336;2022-08-02T12:36:16;28.60;99.90
14471;DHT22;7321;50.802;4.336;2022-08-02T12:39:12;28.60;99.90
14471;DHT22;7321;50.802;4.336;2022-08-02T12:41:39;28.40;99.90
14471;DHT22;7321;50.802;4.336;2022-08-02T12:44:14;28.30;99.90
14471;DHT22;7321;50.802;4.336;2022-08-02T12:46:41;28.20;99.90
14471;DHT22;7321;50.802;4.336;2022-08-02T12:49:16;28.40;99.90
14471;DHT22;7321;50.802;4.336;2022-08-02T12:51:42;28.50;99.90
14471;DHT22;7321;50.802;4.336;2022-08-02T12:54:18;28.60;99.90
14471;DHT22;7321;50.802;4.336;2022-08-02T12:56:45;28.60;99.90
14471;DHT22;7321;50.802;4.336;2022-08-02T12:59:12;28.80;99.90
14471;DHT22;7321;50.802;4.336;2022-08-02T13:01:38;28.90;99.90
14471;DHT22;7321;50.802;4.336;2022-08-02T13:04:04;29.00;99.90
14471;DHT22;7321;50.802;4.336;2022-08-02T13:06:31;29.10;99.90
14471;DHT22;7321;50.802;4.336;2022-08-02T13:08:57;29.20;99.90
14471;DHT22;7321;50.802;4.336;2022-08-02T13:11:26;29.10;99.90
14471;DHT22;7321;50.802;4.336;2022-08-02T13:13:52;29.00;99.90
14471;DHT22;7321;50.802;4.336;2022-08-02T13:16:17;29.10;99.90
14471;DHT22;7321;50.802;4.336;2022-08-02T13:18:43;29.30;99.90
14471;DHT22;7321;50.802;4.336;2022-08-02T13:21:13;29.30;99.90
14471;DHT22;7321;50.802;4.336;2022-08-02T13:23:38;29.30;99.90
14471;DHT22;7321;50.802;4.336;2022-08-02T13:26:04;29.40;99.90
14471;DHT22;7321;50.802;4.336;2022-08-02T13:28:31;29.60;99.90
14471;DHT22;7321;50.802;4.336;2022-08-02T13:30:57;29.80;99.90
14471;DHT22;7321;50.802;4.336;2022-08-02T13:33:22;29.70;99.90
14471;DHT22;7321;50.802;4.336;2022-08-02T13:35:48;29.70;99.90
14471;DHT22;7321;50.802;4.336;2022-08-02T13:38:14;29.40;99.90
14471;DHT22;7321;50.802;4.336;2022-08-02T13:40:40;29.20;99.90
14471;DHT22;7321;50.802;4.336;2022-08-02T13:43:25;29.20;99.90
14471;DHT22;7321;50.802;4.336;2022-08-02T13:45:51;29.30;99.90
14471;DHT22;7321;50.802;4.336;2022-08-02T13:48:17;29.40;99.90
14471;DHT22;7321;50.802;4.336;2022-08-02T13:50:43;29.50;99.90
14471;DHT22;7321;50.802;4.336;2022-08-02T13:53:08;29.50;99.90
14471;DHT22;7321;50.802;4.336;2022-08-02T13:55:34;29.30;99.90
14471;DHT22;7321;50.802;4.336;2022-08-02T13:58:01;29.30;99.90
14471;DHT22;7321;50.802;4.336;2022-08-02T14:00:27;29.30;99.90
14471;DHT22;7321;50.802;4.336;2022-08-02T14:02:52;29.50;99.90
14471;DHT22;7321;50.802;4.336;2022-08-02T14:05:18;29.60;99.90
14471;DHT22;7321;50.802;4.336;2022-08-02T14:07:44;29.30;99.90
14471;DHT22;7321;50.802;4.336;2022-08-02T14:10:10;29.10;99.90
14471;DHT22;7321;50.802;4.336;2022-08-02T14:12:35;29.10;99.90
14471;DHT22;7321;50.802;4.336;2022-08-02T14:15:01;29.10;99.90
14471;DHT22;7321;50.802;4.336;2022-08-02T14:17:27;29.20;99.90
14471;DHT22;7321;50.802;4.336;2022-08-02T14:19:53;29.40;99.90
14471;DHT22;7321;50.802;4.336;2022-08-02T14:22:19;29.40;99.90
14471;DHT22;7321;50.802;4.336;2022-08-02T14:24:44;29.60;99.90
14471;DHT22;7321;50.802;4.336;2022-08-02T14:27:10;29.80;99.90
14471;DHT22;7321;50.802;4.336;2022-08-02T14:29:36;30.00;99.90
14471;DHT22;7321;50.802;4.336;2022-08-02T14:32:02;30.20;99.90
14471;DHT22;7321;50.802;4.336;2022-08-02T14:34:28;30.20;99.90
14471;DHT22;7321;50.802;4.336;2022-08-02T14:36:55;30.30;99.90
14471;DHT22;7321;50.802;4.336;2022-08-02T14:39:21;30.20;99.90
14471;DHT22;7321;50.802;4.336;2022-08-02T14:41:47;30.20;99.90
14471;DHT22;7321;50.802;4.336;2022-08-02T14:44:13;30.10;99.90
14471;DHT22;7321;50.802;4.336;2022-08-02T14:46:39;29.90;99.90
14471;DHT22;7321;50.802;4.336;2022-08-02T14:49:08;29.80;99.90
14471;DHT22;7321;50.802;4.336;2022-08-02T14:51:35;30.00;99.90
14471;DHT22;7321;50.802;4.336;2022-08-02T14:54:05;30.20;99.90
14471;DHT22;7321;50.802;4.336;2022-08-02T14:56:32;30.10;99.90
14471;DHT22;7321;50.802;4.336;2022-08-02T14:58:58;30.10;99.90
14471;DHT22;7321;50.802;4.336;2022-08-02T15:01:24;30.00;99.90
14471;DHT22;7321;50.802;4.336;2022-08-02T15:03:50;29.90;99.90
14471;DHT22;7321;50.802;4.336;2022-08-02T15:06:16;29.70;99.90
14471;DHT22;7321;50.802;4.336;2022-08-02T15:08:41;29.80;99.90
14471;DHT22;7321;50.802;4.336;2022-08-02T15:11:08;29.80;99.90
14471;DHT22;7321;50.802;4.336;2022-08-02T15:13:34;29.90;99.90
14471;DHT22;7321;50.802;4.336;2022-08-02T15:15:59;30.20;99.90
14471;DHT22;7321;50.802;4.336;2022-08-02T15:18:28;30.50;99.90
14471;DHT22;7321;50.802;4.336;2022-08-02T15:20:54;30.80;99.90
14471;DHT22;7321;50.802;4.336;2022-08-02T15:23:20;31.20;99.90
14471;DHT22;7321;50.802;4.336;2022-08-02T15:25:46;31.40;99.90
14471;DHT22;7321;50.802;4.336;2022-08-02T15:28:11;31.40;99.90
14471;DHT22;7321;50.802;4.336;2022-08-02T15:30:37;31.60;99.90
14471;DHT22;7321;50.802;4.336;2022-08-02T15:33:04;31.70;99.90
14471;DHT22;7321;50.802;4.336;2022-08-02T15:35:30;31.90;99.90
14471;DHT22;7321;50.802;4.336;2022-08-02T15:37:57;32.20;99.90
14471;DHT22;7321;50.802;4.336;2022-08-02T15:40:23;32.10;99.90
14471;DHT22;7321;50.802;4.336;2022-08-02T15:42:49;31.90;99.90
14471;DHT22;7321;50.802;4.336;2022-08-02T15:45:16;31.90;99.90
14471;DHT22;7321;50.802;4.336;2022-08-02T15:47:42;32.10;99.90
14471;DHT22;7321;50.802;4.336;2022-08-02T15:50:08;32.40;99.90
14471;DHT22;7321;50.802;4.336;2022-08-02T15:52:34;32.70;99.90
14471;DHT22;7321;50.802;4.336;2022-08-02T15:55:00;33.00;99.90
14471;DHT22;7321;50.802;4.336;2022-08-02T15:57:26;32.80;99.90
14471;DHT22;7321;50.802;4.336;2022-08-02T15:59:52;32.60;99.90
14471;DHT22;7321;50.802;4.336;2022-08-02T16:02:19;32.70;99.90
14471;DHT22;7321;50.802;4.336;2022-08-02T16:04:45;32.20;99.90
14471;DHT22;7321;50.802;4.336;2022-08-02T16:07:12;32.30;99.90
14471;DHT22;7321;50.802;4.336;2022-08-02T16:09:37;32.10;99.90
14471;DHT22;7321;50.802;4.336;2022-08-02T16:12:04;32.10;99.90
14471;DHT22;7321;50.802;4.336;2022-08-02T16:14:40;32.40;99.90
14471;DHT22;7321;50.802;4.336;2022-08-02T16:17:06;32.70;99.90
14471;DHT22;7321;50.802;4.336;2022-08-02T16:19:32;32.80;99.90
14471;DHT22;7321;50.802;4.336;2022-08-02T16:22:02;33.20;99.90